createdAt,value
2018-04-24T00:00:08.389Z,66.47
2018-04-24T00:01:09.767Z,65.80
2018-04-24T00:02:11.149Z,65.23
2018-04-24T00:03:12.543Z,64.94
2018-04-24T00:04:13.920Z,64.94
2018-04-24T00:05:15.306Z,65.13
2018-04-24T00:06:16.686Z,64.75
2018-04-24T00:07:18.073Z,64.94
2018-04-24T00:08:19.467Z,65.23
2018-04-24T00:09:20.852Z,64.85
2018-04-24T00:10:22.224Z,64.94
2018-04-24T00:11:23.615Z,64.75
2018-04-24T00:12:24.999Z,65.04
2018-04-24T00:13:26.391Z,65.52
2018-04-24T00:14:27.785Z,65.42
2018-04-24T00:15:29.167Z,65.80
2018-04-24T00:16:30.549Z,65.99
2018-04-24T00:17:31.936Z,65.80
2018-04-24T00:18:33.317Z,66.18
2018-04-24T00:19:34.702Z,66.18
2018-04-24T00:20:36.085Z,66.28
2018-04-24T00:21:37.478Z,65.52
2018-04-24T00:22:38.858Z,65.52
2018-04-24T00:23:40.254Z,66.28
2018-04-24T00:24:41.642Z,66.18
2018-04-24T00:25:43.034Z,65.80
2018-04-24T00:26:44.411Z,65.89
2018-04-24T00:27:45.790Z,65.80
2018-04-24T00:28:47.169Z,65.80
2018-04-24T00:29:48.551Z,65.80
2018-04-24T00:30:49.941Z,65.70
2018-04-24T00:31:51.312Z,65.89
2018-04-24T00:32:52.696Z,65.61
2018-04-24T00:33:54.084Z,65.70
2018-04-24T00:34:55.476Z,65.70
2018-04-24T00:35:56.866Z,65.33
2018-04-24T00:36:58.242Z,65.89
2018-04-24T00:37:59.638Z,66.18
2018-04-24T00:39:01.648Z,65.70
2018-04-24T00:40:03.042Z,65.89
2018-04-24T00:41:04.421Z,66.09
2018-04-24T00:42:05.811Z,66.28
2018-04-24T00:43:07.189Z,65.80
2018-04-24T00:44:08.583Z,65.80
2018-04-24T00:45:09.979Z,65.80
2018-04-24T00:46:11.370Z,65.61
2018-04-24T00:47:12.753Z,66.09
2018-04-24T00:48:14.134Z,66.18
2018-04-24T00:49:15.508Z,65.89
2018-04-24T00:50:16.889Z,66.09
2018-04-24T00:51:18.280Z,66.56
2018-04-24T00:52:19.667Z,66.94
2018-04-24T00:53:21.057Z,66.75
2018-04-24T00:54:22.440Z,66.56
2018-04-24T00:55:23.822Z,66.75
2018-04-24T00:56:25.205Z,66.66
2018-04-24T00:57:26.587Z,66.66
2018-04-24T00:58:27.979Z,66.28
2018-04-24T00:59:29.356Z,66.66
2018-04-24T01:00:30.734Z,66.38
2018-04-24T01:01:32.112Z,66.47
2018-04-24T01:02:33.498Z,66.94
2018-04-24T01:03:34.873Z,66.56
2018-04-24T01:04:36.261Z,66.56
2018-04-24T01:05:37.646Z,66.28
2018-04-24T01:06:39.047Z,67.14
2018-04-24T01:07:40.419Z,67.04
2018-04-24T01:08:41.802Z,67.20
2018-04-24T01:09:43.195Z,67.14
2018-04-24T01:10:44.568Z,67.52
2018-04-24T01:11:45.952Z,67.71
2018-04-24T01:12:47.343Z,67.04
2018-04-24T01:13:48.745Z,67.42
2018-04-24T01:14:50.126Z,67.71
2018-04-24T01:15:51.529Z,67.52
2018-04-24T01:16:52.908Z,67.14
2018-04-24T01:17:54.300Z,67.61
2018-04-24T01:18:55.689Z,67.04
2018-04-24T01:19:57.073Z,67.04
2018-04-24T01:20:58.458Z,67.61
2018-04-24T01:21:59.836Z,67.42
2018-04-24T01:23:01.239Z,67.48
2018-04-24T01:24:02.616Z,67.42
2018-04-24T01:25:04.006Z,67.61
2018-04-24T01:26:05.368Z,67.33
2018-04-24T01:27:06.756Z,67.42
2018-04-24T01:28:08.148Z,67.39
2018-04-24T01:29:09.536Z,67.42
2018-04-24T01:30:10.918Z,67.42
2018-04-24T01:31:12.309Z,67.33
2018-04-24T01:32:13.683Z,67.39
2018-04-24T01:33:15.065Z,67.23
2018-04-24T01:34:16.471Z,67.29
2018-04-24T01:35:17.849Z,66.82
2018-04-24T01:36:19.239Z,66.91
2018-04-24T01:37:20.613Z,67.39
2018-04-24T01:38:22.005Z,66.44
2018-04-24T01:39:23.384Z,66.24
2018-04-24T01:40:24.773Z,66.82
2018-04-24T01:41:26.149Z,67.68
2018-04-24T01:42:27.550Z,67.10
2018-04-24T01:43:28.925Z,67.58
2018-04-24T01:44:30.306Z,67.20
2018-04-24T01:45:31.688Z,67.10
2018-04-24T01:46:33.069Z,67.29
2018-04-24T01:47:35.398Z,67.39
2018-04-24T01:48:36.780Z,67.58
2018-04-24T01:49:38.162Z,67.48
2018-04-24T01:50:39.550Z,67.96
2018-04-24T01:51:40.934Z,67.29
2018-04-24T01:52:42.330Z,67.68
2018-04-24T01:53:43.704Z,67.96
2018-04-24T01:54:45.088Z,68.34
2018-04-24T01:55:46.476Z,68.34
2018-04-24T01:56:47.858Z,68.24
2018-04-24T01:57:49.246Z,68.53
2018-04-24T01:58:50.630Z,68.02
2018-04-24T01:59:52.022Z,68.40
2018-04-24T02:00:53.409Z,68.59
2018-04-24T02:01:54.779Z,68.40
2018-04-24T02:02:56.166Z,68.69
2018-04-24T02:03:57.545Z,68.88
2018-04-24T02:04:58.928Z,68.98
2018-04-24T02:06:01.096Z,69.17
2018-04-24T02:07:02.469Z,69.45
2018-04-24T02:08:03.852Z,69.26
2018-04-24T02:09:05.246Z,68.78
2018-04-24T02:10:06.697Z,69.45
2018-04-24T02:11:07.959Z,69.45
2018-04-24T02:12:09.340Z,69.45
2018-04-24T02:13:10.720Z,69.35
2018-04-24T02:14:12.103Z,69.64
2018-04-24T02:15:13.475Z,69.83
2018-04-24T02:16:14.867Z,70.21
2018-04-24T02:17:16.247Z,69.93
2018-04-24T02:18:17.629Z,70.50
2018-04-24T02:19:19.015Z,70.31
2018-04-24T02:20:20.390Z,70.02
2018-04-24T02:21:21.784Z,70.59
2018-04-24T02:22:23.167Z,69.83
2018-04-24T02:23:24.550Z,70.75
2018-04-24T02:24:25.932Z,70.56
2018-04-24T02:25:27.309Z,70.37
2018-04-24T02:26:28.694Z,70.18
2018-04-24T02:27:30.093Z,70.37
2018-04-24T02:28:31.467Z,70.84
2018-04-24T02:29:32.861Z,71.13
2018-04-24T02:30:34.247Z,70.75
2018-04-24T02:31:36.283Z,70.94
2018-04-24T02:32:37.665Z,70.84
2018-04-24T02:33:39.038Z,70.27
2018-04-24T02:34:40.411Z,70.37
2018-04-24T02:35:41.796Z,70.84
2018-04-24T02:36:43.184Z,70.94
2018-04-24T02:37:44.562Z,70.84
2018-04-24T02:38:45.942Z,71.32
2018-04-24T02:39:47.325Z,71.89
2018-04-24T02:40:48.696Z,72.08
2018-04-24T02:41:50.080Z,71.61
2018-04-24T02:42:51.475Z,71.80
2018-04-24T02:43:52.848Z,72.17
2018-04-24T02:44:54.225Z,72.46
2018-04-24T02:45:55.619Z,72.46
2018-04-24T02:46:56.986Z,72.46
2018-04-24T02:47:58.366Z,72.37
2018-04-24T02:48:59.756Z,72.46
2018-04-24T02:50:01.132Z,72.56
2018-04-24T02:51:02.509Z,72.75
2018-04-24T02:52:03.936Z,73.22
2018-04-24T02:53:05.327Z,72.65
2018-04-24T02:54:06.711Z,73.22
2018-04-24T02:55:08.089Z,73.41
2018-04-24T02:56:09.465Z,73.47
2018-04-24T02:57:10.847Z,73.76
2018-04-24T02:58:13.095Z,73.85
2018-04-24T02:59:14.472Z,73.66
2018-04-24T03:00:15.863Z,73.76
2018-04-24T03:01:17.250Z,74.04
2018-04-24T03:02:18.621Z,73.95
2018-04-24T03:03:20.003Z,74.24
2018-04-24T03:04:21.383Z,74.14
2018-04-24T03:05:22.763Z,74.14
2018-04-24T03:06:24.144Z,73.95
2018-04-24T03:07:25.518Z,74.43
2018-04-24T03:08:26.902Z,74.62
2018-04-24T03:09:28.280Z,74.52
2018-04-24T03:10:29.663Z,74.33
2018-04-24T03:11:31.048Z,74.71
2018-04-24T03:12:32.417Z,74.80
2018-04-24T03:13:33.796Z,74.99
2018-04-24T03:14:35.193Z,75.57
2018-04-24T03:15:36.563Z,74.90
2018-04-24T03:16:37.952Z,75.47
2018-04-24T03:17:39.341Z,75.67
2018-04-24T03:18:40.723Z,75.57
2018-04-24T03:19:42.102Z,75.85
2018-04-24T03:20:43.484Z,76.33
2018-04-24T03:21:44.864Z,75.95
2018-04-24T03:22:46.247Z,76.23
2018-04-24T03:23:47.624Z,75.95
2018-04-24T03:24:49.008Z,75.95
2018-04-24T03:25:51.023Z,76.23
2018-04-24T03:26:52.408Z,76.90
2018-04-24T03:27:53.791Z,77.19
2018-04-24T03:28:55.164Z,77.00
2018-04-24T03:29:56.543Z,77.28
2018-04-24T03:30:57.922Z,76.71
2018-04-24T03:31:59.308Z,77.19
2018-04-24T03:33:00.698Z,77.09
2018-04-24T03:34:02.085Z,77.56
2018-04-24T03:35:04.004Z,77.28
2018-04-24T03:36:05.345Z,77.85
2018-04-24T03:37:06.734Z,77.76
2018-04-24T03:38:08.125Z,77.66
2018-04-24T03:39:09.502Z,77.95
2018-04-24T03:40:10.886Z,77.85
2018-04-24T03:41:12.269Z,77.43
2018-04-24T03:42:13.652Z,78.29
2018-04-24T03:43:15.743Z,78.29
2018-04-24T03:44:17.128Z,78.57
2018-04-24T03:45:18.516Z,79.24
2018-04-24T03:46:19.891Z,79.14
2018-04-24T03:47:21.271Z,78.77
2018-04-24T03:48:23.602Z,78.96
2018-04-24T03:49:24.986Z,79.14
2018-04-24T03:50:26.375Z,79.43
2018-04-24T03:51:27.756Z,79.05
2018-04-24T03:52:29.133Z,78.57
2018-04-24T03:53:30.520Z,78.67
2018-04-24T03:54:31.912Z,78.57
2018-04-24T03:55:33.298Z,78.48
2018-04-24T03:56:34.667Z,78.29
2018-04-24T03:57:36.049Z,78.67
2018-04-24T03:58:37.427Z,78.57
2018-04-24T03:59:38.806Z,78.48
2018-04-24T04:00:40.197Z,78.48
2018-04-24T04:01:41.583Z,78.48
2018-04-24T04:02:42.962Z,78.57
2018-04-24T04:03:44.363Z,78.57
2018-04-24T04:04:45.750Z,78.77
2018-04-24T04:05:47.120Z,78.42
2018-04-24T04:06:48.509Z,78.99
2018-04-24T04:07:49.897Z,78.52
2018-04-24T04:08:51.287Z,78.61
2018-04-24T04:09:52.672Z,78.52
2018-04-24T04:10:54.055Z,78.90
2018-04-24T04:11:55.435Z,78.52
2018-04-24T04:12:56.823Z,78.52
2018-04-24T04:13:58.204Z,78.61
2018-04-24T04:14:59.590Z,78.42
2018-04-24T04:16:01.041Z,78.52
2018-04-24T04:17:03.304Z,78.80
2018-04-24T04:18:04.693Z,78.42
2018-04-24T04:19:06.074Z,78.23
2018-04-24T04:20:07.458Z,78.42
2018-04-24T04:21:08.842Z,78.52
2018-04-24T04:22:10.223Z,78.80
2018-04-24T04:23:11.614Z,78.42
2018-04-24T04:24:13.002Z,79.28
2018-04-24T04:25:14.388Z,78.71
2018-04-24T04:26:15.768Z,78.61
2018-04-24T04:27:17.159Z,78.80
2018-04-24T04:28:18.538Z,78.61
2018-04-24T04:29:19.935Z,79.13
2018-04-24T04:30:21.316Z,79.13
2018-04-24T04:31:22.699Z,78.46
2018-04-24T04:32:24.107Z,78.56
2018-04-24T04:33:25.490Z,78.46
2018-04-24T04:34:26.879Z,78.46
2018-04-24T04:35:28.263Z,78.85
2018-04-24T04:36:29.651Z,78.75
2018-04-24T04:37:31.039Z,79.22
2018-04-24T04:38:32.426Z,78.75
2018-04-24T04:39:33.814Z,78.85
2018-04-24T04:40:35.194Z,79.32
2018-04-24T04:41:36.572Z,79.13
2018-04-24T04:42:37.948Z,79.41
2018-04-24T04:43:39.341Z,79.32
2018-04-24T04:44:40.719Z,79.89
2018-04-24T04:45:42.112Z,79.51
2018-04-24T04:46:43.501Z,79.41
2018-04-24T04:47:44.943Z,79.41
2018-04-24T04:48:46.288Z,79.70
2018-04-24T04:49:48.196Z,79.41
2018-04-24T04:50:49.572Z,79.51
2018-04-24T04:51:51.593Z,79.80
2018-04-24T04:52:52.981Z,79.89
2018-04-24T04:53:54.373Z,79.99
2018-04-24T04:54:55.812Z,79.80
2018-04-24T04:55:57.190Z,79.80
2018-04-24T04:56:58.573Z,80.18
2018-04-24T04:57:59.971Z,80.36
2018-04-24T04:59:01.363Z,80.27
2018-04-24T05:00:02.752Z,80.27
2018-04-24T05:01:04.135Z,79.70
2018-04-24T05:02:05.550Z,79.80
2018-04-24T05:03:06.937Z,79.70
2018-04-24T05:04:08.310Z,80.08
2018-04-24T05:05:09.770Z,79.70
2018-04-24T05:06:11.077Z,79.80
2018-04-24T05:07:12.464Z,79.89
2018-04-24T05:08:13.860Z,79.80
2018-04-24T05:09:15.242Z,79.89
2018-04-24T05:10:16.630Z,79.70
2018-04-24T05:11:18.015Z,79.89
2018-04-24T05:12:20.109Z,79.80
2018-04-24T05:13:21.510Z,79.89
2018-04-24T05:14:22.869Z,79.89
2018-04-24T05:15:24.266Z,79.60
2018-04-24T05:16:25.645Z,79.70
2018-04-24T05:17:27.029Z,79.89
2018-04-24T05:18:28.450Z,79.74
2018-04-24T05:19:29.839Z,79.93
2018-04-24T05:20:31.223Z,79.99
2018-04-24T05:21:32.618Z,79.64
2018-04-24T05:22:33.998Z,80.02
2018-04-24T05:23:35.394Z,79.55
2018-04-24T05:24:36.776Z,79.46
2018-04-24T05:25:38.175Z,79.46
2018-04-24T05:26:39.597Z,79.46
2018-04-24T05:27:40.941Z,79.17
2018-04-24T05:28:42.334Z,79.36
2018-04-24T05:29:43.726Z,79.17
2018-04-24T05:30:45.103Z,79.36
2018-04-24T05:31:46.500Z,79.36
2018-04-24T05:32:47.884Z,79.64
2018-04-24T05:33:49.262Z,79.55
2018-04-24T05:34:50.652Z,79.36
2018-04-24T05:35:52.142Z,78.98
2018-04-24T05:36:53.427Z,79.27
2018-04-24T05:37:54.822Z,79.02
2018-04-24T05:38:56.211Z,79.11
2018-04-24T05:39:57.602Z,79.21
2018-04-24T05:40:58.988Z,78.73
2018-04-24T05:42:00.381Z,79.02
2018-04-24T05:43:02.573Z,78.44
2018-04-24T05:44:03.962Z,78.25
2018-04-24T05:45:05.353Z,78.16
2018-04-24T05:46:06.746Z,78.16
2018-04-24T05:47:08.127Z,78.06
2018-04-24T05:48:09.512Z,77.97
2018-04-24T05:49:10.898Z,78.35
2018-04-24T05:50:12.284Z,78.16
2018-04-24T05:51:13.683Z,78.16
2018-04-24T05:52:15.119Z,78.16
2018-04-24T05:53:16.461Z,78.06
2018-04-24T05:54:17.847Z,78.39
2018-04-24T05:55:19.232Z,77.25
2018-04-24T05:56:20.617Z,77.25
2018-04-24T05:57:22.031Z,76.96
2018-04-24T05:58:23.421Z,77.53
2018-04-24T05:59:24.807Z,76.39
2018-04-24T06:00:26.197Z,76.14
2018-04-24T06:01:27.583Z,75.76
2018-04-24T06:02:28.977Z,75.66
2018-04-24T06:03:30.377Z,76.04
2018-04-24T06:04:31.759Z,75.76
2018-04-24T06:05:33.156Z,75.57
2018-04-24T06:06:34.553Z,75.66
2018-04-24T06:07:35.949Z,75.66
2018-04-24T06:08:37.431Z,75.66
2018-04-24T06:09:38.693Z,75.37
2018-04-24T06:10:40.080Z,75.47
2018-04-24T06:11:41.471Z,75.18
2018-04-24T06:12:43.554Z,75.09
2018-04-24T06:13:44.957Z,74.74
2018-04-24T06:14:46.325Z,74.74
2018-04-24T06:15:47.718Z,73.79
2018-04-24T06:16:49.923Z,73.32
2018-04-24T06:17:51.306Z,72.83
2018-04-24T06:18:52.694Z,72.55
2018-04-24T06:19:54.095Z,73.07
2018-04-24T06:20:55.490Z,72.97
2018-04-24T06:21:56.880Z,72.49
2018-04-24T06:22:58.273Z,72.78
2018-04-24T06:23:59.665Z,73.22
2018-04-24T06:25:01.069Z,73.60
2018-04-24T06:26:03.249Z,74.08
2018-04-24T06:27:04.640Z,74.27
2018-04-24T06:28:06.033Z,73.88
2018-04-24T06:29:07.424Z,74.08
2018-04-24T06:30:08.815Z,74.21
2018-04-24T06:31:10.197Z,73.83
2018-04-24T06:32:11.586Z,73.54
2018-04-24T06:33:12.985Z,74.11
2018-04-24T06:34:14.371Z,74.02
2018-04-24T06:35:15.755Z,73.60
2018-04-24T06:36:17.142Z,73.83
2018-04-24T06:37:18.533Z,74.08
2018-04-24T06:38:19.924Z,74.27
2018-04-24T06:39:21.340Z,74.21
2018-04-24T06:40:22.738Z,73.83
2018-04-24T06:41:24.123Z,74.02
2018-04-24T06:42:25.520Z,74.30
2018-04-24T06:43:26.919Z,74.02
2018-04-24T06:44:28.296Z,73.63
2018-04-24T06:45:30.490Z,72.72
2018-04-24T06:46:31.859Z,72.14
2018-04-24T06:47:33.250Z,70.90
2018-04-24T06:48:34.646Z,71.38
2018-04-24T06:49:36.034Z,71.19
2018-04-24T06:50:37.412Z,71.09
2018-04-24T06:51:38.809Z,71.47
2018-04-24T06:52:40.190Z,72.33
2018-04-24T06:53:41.585Z,73.39
2018-04-24T06:54:42.988Z,73.77
2018-04-24T06:55:44.384Z,74.34
2018-04-24T06:56:45.769Z,73.67
2018-04-24T06:57:47.163Z,73.86
2018-04-24T06:58:48.583Z,74.15
2018-04-24T06:59:49.967Z,74.05
2018-04-24T07:00:51.386Z,74.15
2018-04-24T07:01:52.752Z,74.24
2018-04-24T07:02:54.140Z,73.67
2018-04-24T07:03:55.530Z,73.29
2018-04-24T07:04:57.892Z,73.00
2018-04-24T07:05:59.281Z,73.00
2018-04-24T07:07:00.668Z,73.58
2018-04-24T07:08:02.057Z,71.19
2018-04-24T07:09:03.471Z,71.47
2018-04-24T07:10:04.871Z,71.38
2018-04-24T07:11:06.271Z,71.42
2018-04-24T07:12:07.661Z,70.65
2018-04-24T07:13:09.057Z,69.41
2018-04-24T07:14:10.460Z,69.41
2018-04-24T07:15:11.847Z,69.31
2018-04-24T07:16:13.240Z,68.74
2018-04-24T07:17:14.634Z,68.74
2018-04-24T07:18:16.021Z,69.21
2018-04-24T07:19:17.409Z,69.12
2018-04-24T07:20:18.804Z,68.45
2018-04-24T07:21:20.204Z,68.35
2018-04-24T07:22:21.620Z,68.64
2018-04-24T07:23:23.010Z,67.78
2018-04-24T07:24:24.394Z,67.34
2018-04-24T07:25:25.787Z,66.76
2018-04-24T07:26:27.174Z,65.97
2018-04-24T07:27:28.571Z,66.16
2018-04-24T07:28:29.959Z,66.63
2018-04-24T07:29:31.351Z,66.54
2018-04-24T07:30:32.737Z,67.30
2018-04-24T07:31:34.125Z,67.69
2018-04-24T07:32:35.515Z,67.02
2018-04-24T07:33:36.908Z,67.59
2018-04-24T07:34:38.298Z,67.21
2018-04-24T07:35:39.692Z,66.63
2018-04-24T07:36:41.076Z,67.02
2018-04-24T07:37:42.486Z,67.11
2018-04-24T07:38:43.880Z,67.40
2018-04-24T07:39:45.267Z,67.02
2018-04-24T07:40:46.660Z,66.92
2018-04-24T07:41:48.056Z,66.35
2018-04-24T07:42:49.448Z,66.67
2018-04-24T07:43:50.850Z,66.38
2018-04-24T07:44:52.252Z,66.19
2018-04-24T07:45:53.636Z,66.32
2018-04-24T07:46:55.050Z,66.13
2018-04-24T07:47:56.423Z,64.63
2018-04-24T07:48:57.809Z,63.67
2018-04-24T07:49:59.190Z,62.81
2018-04-24T07:51:00.590Z,61.85
2018-04-24T07:52:01.978Z,62.14
2018-04-24T07:53:03.363Z,62.46
2018-04-24T07:54:04.765Z,61.31
2018-04-24T07:55:06.160Z,60.67
2018-04-24T07:56:07.562Z,60.12
2018-04-24T07:57:08.962Z,58.78
2018-04-24T07:58:10.346Z,58.04
2018-04-24T07:59:11.743Z,55.96
2018-04-24T08:00:13.131Z,54.93
2018-04-24T08:01:14.532Z,53.61
2018-04-24T08:02:15.935Z,52.94
2018-04-24T08:03:17.327Z,52.84
2018-04-24T08:04:18.713Z,53.03
2018-04-24T08:05:20.098Z,53.39
2018-04-24T08:06:21.498Z,54.64
2018-04-24T08:07:22.893Z,55.22
2018-04-24T08:08:24.294Z,54.74
2018-04-24T08:09:25.700Z,54.74
2018-04-24T08:10:27.095Z,54.52
2018-04-24T08:11:28.481Z,54.61
2018-04-24T08:12:29.880Z,55.26
2018-04-24T08:13:31.275Z,55.16
2018-04-24T08:14:32.670Z,56.00
2018-04-24T08:15:34.067Z,56.19
2018-04-24T08:16:35.524Z,57.15
2018-04-24T08:17:36.821Z,56.93
2018-04-24T08:18:38.218Z,58.08
2018-04-24T08:19:39.624Z,57.70
2018-04-24T08:20:41.597Z,57.70
2018-04-24T08:21:42.991Z,58.91
2018-04-24T08:22:44.401Z,59.20
2018-04-24T08:23:45.792Z,59.01
2018-04-24T08:24:47.189Z,59.58
2018-04-24T08:25:48.577Z,60.06
2018-04-24T08:26:49.982Z,60.25
2018-04-24T08:27:51.369Z,59.77
2018-04-24T08:28:52.770Z,60.16
2018-04-24T08:29:54.161Z,60.73
2018-04-24T08:30:55.558Z,60.25
2018-04-24T08:31:56.950Z,60.51
2018-04-24T08:32:58.355Z,60.73
2018-04-24T08:33:59.739Z,60.54
2018-04-24T08:35:01.132Z,60.44
2018-04-24T08:36:02.521Z,60.64
2018-04-24T08:37:03.916Z,60.16
2018-04-24T08:38:05.329Z,60.32
2018-04-24T08:39:06.721Z,60.13
2018-04-24T08:40:08.161Z,60.32
2018-04-24T08:41:09.485Z,60.70
2018-04-24T08:42:10.890Z,61.28
2018-04-24T08:43:12.281Z,60.89
2018-04-24T08:44:13.670Z,61.37
2018-04-24T08:45:15.921Z,60.13
2018-04-24T08:46:17.454Z,60.80
2018-04-24T08:47:18.675Z,60.99
2018-04-24T08:48:20.064Z,61.08
2018-04-24T08:49:21.458Z,61.47
2018-04-24T08:50:22.846Z,61.82
2018-04-24T08:51:24.235Z,61.44
2018-04-24T08:52:25.630Z,62.01
2018-04-24T08:53:27.018Z,61.63
2018-04-24T08:54:28.422Z,62.30
2018-04-24T08:55:29.820Z,62.01
2018-04-24T08:56:31.217Z,61.85
2018-04-24T08:57:32.602Z,62.04
2018-04-24T08:58:34.002Z,61.66
2018-04-24T08:59:35.416Z,61.18
2018-04-24T09:00:36.805Z,60.99
2018-04-24T09:01:38.196Z,60.61
2018-04-24T09:02:39.581Z,60.61
2018-04-24T09:03:40.985Z,61.08
2018-04-24T09:04:42.383Z,61.28
2018-04-24T09:05:43.772Z,60.80
2018-04-24T09:06:45.155Z,61.08
2018-04-24T09:07:46.569Z,61.08
2018-04-24T09:08:47.964Z,60.32
2018-04-24T09:09:49.353Z,60.80
2018-04-24T09:10:50.746Z,60.32
2018-04-24T09:11:52.152Z,60.83
2018-04-24T09:12:53.538Z,60.32
2018-04-24T09:13:54.934Z,60.83
2018-04-24T09:14:56.352Z,60.44
2018-04-24T09:15:57.730Z,60.25
2018-04-24T09:16:59.126Z,60.25
2018-04-24T09:18:00.519Z,59.97
2018-04-24T09:19:01.922Z,60.16
2018-04-24T09:20:03.301Z,60.44
2018-04-24T09:21:04.701Z,60.61
2018-04-24T09:22:06.086Z,60.80
2018-04-24T09:23:07.484Z,60.89
2018-04-24T09:24:09.385Z,60.89
2018-04-24T09:25:10.780Z,61.18
2018-04-24T09:26:12.181Z,60.80
2018-04-24T09:27:13.577Z,60.89
2018-04-24T09:28:14.971Z,61.28
2018-04-24T09:29:16.368Z,61.08
2018-04-24T09:30:17.765Z,61.28
2018-04-24T09:31:19.158Z,61.18
2018-04-24T09:32:20.559Z,60.61
2018-04-24T09:33:21.990Z,60.89
2018-04-24T09:34:23.363Z,60.99
2018-04-24T09:35:24.749Z,61.37
2018-04-24T09:36:26.148Z,60.89
2018-04-24T09:37:27.528Z,60.89
2018-04-24T09:38:28.933Z,61.18
2018-04-24T09:39:30.321Z,61.94
2018-04-24T09:40:31.706Z,61.28
2018-04-24T09:41:33.142Z,61.28
2018-04-24T09:42:34.523Z,60.99
2018-04-24T09:43:35.921Z,60.99
2018-04-24T09:44:37.308Z,60.89
2018-04-24T09:45:38.699Z,61.08
2018-04-24T09:46:40.092Z,60.99
2018-04-24T09:47:41.491Z,60.96
2018-04-24T09:48:42.893Z,61.85
2018-04-24T09:49:44.279Z,61.85
2018-04-24T09:50:45.681Z,61.66
2018-04-24T09:51:47.079Z,61.85
2018-04-24T09:52:48.470Z,62.71
2018-04-24T09:53:49.861Z,62.90
2018-04-24T09:54:51.259Z,62.23
2018-04-24T09:55:52.651Z,62.23
2018-04-24T09:56:54.058Z,61.76
2018-04-24T09:57:55.450Z,62.04
2018-04-24T09:58:56.837Z,62.43
2018-04-24T09:59:58.232Z,62.04
2018-04-24T10:00:59.640Z,61.82
2018-04-24T10:02:01.043Z,62.11
2018-04-24T10:03:02.437Z,62.20
2018-04-24T10:04:03.830Z,62.30
2018-04-24T10:05:05.226Z,62.30
2018-04-24T10:06:06.614Z,62.49
2018-04-24T10:07:08.004Z,62.30
2018-04-24T10:08:09.396Z,62.77
2018-04-24T10:09:11.452Z,62.77
2018-04-24T10:10:12.844Z,62.87
2018-04-24T10:11:14.234Z,63.06
2018-04-24T10:12:15.632Z,63.26
2018-04-24T10:13:17.027Z,63.73
2018-04-24T10:14:18.428Z,63.35
2018-04-24T10:15:19.808Z,62.97
2018-04-24T10:16:21.200Z,63.26
2018-04-24T10:17:22.604Z,63.83
2018-04-24T10:18:24.004Z,63.35
2018-04-24T10:19:25.395Z,63.64
2018-04-24T10:20:26.797Z,64.02
2018-04-24T10:21:28.175Z,63.16
2018-04-24T10:22:29.579Z,63.54
2018-04-24T10:23:30.964Z,63.35
2018-04-24T10:24:32.358Z,63.35
2018-04-24T10:25:33.746Z,63.16
2018-04-24T10:26:35.146Z,64.02
2018-04-24T10:27:36.534Z,64.22
2018-04-24T10:28:37.930Z,64.22
2018-04-24T10:29:39.347Z,64.40
2018-04-24T10:30:40.733Z,64.59
2018-04-24T10:31:42.120Z,64.22
2018-04-24T10:32:43.519Z,64.40
2018-04-24T10:33:44.907Z,64.50
2018-04-24T10:34:46.301Z,64.98
2018-04-24T10:35:47.705Z,64.69
2018-04-24T10:36:49.794Z,64.79
2018-04-24T10:37:51.187Z,65.55
2018-04-24T10:38:52.576Z,65.17
2018-04-24T10:39:53.971Z,65.55
2018-04-24T10:40:55.360Z,65.26
2018-04-24T10:41:57.334Z,65.74
2018-04-24T10:42:58.722Z,65.65
2018-04-24T10:44:00.110Z,65.74
2018-04-24T10:45:01.501Z,66.13
2018-04-24T10:46:02.901Z,66.28
2018-04-24T10:47:04.279Z,66.47
2018-04-24T10:48:05.692Z,66.47
2018-04-24T10:49:07.073Z,67.43
2018-04-24T10:50:08.472Z,67.53
2018-04-24T10:51:09.865Z,67.63
2018-04-24T10:52:11.244Z,67.24
2018-04-24T10:53:12.642Z,67.63
2018-04-24T10:54:14.030Z,68.29
2018-04-24T10:55:15.424Z,68.01
2018-04-24T10:56:17.502Z,67.91
2018-04-24T10:57:18.897Z,67.91
2018-04-24T10:58:20.291Z,67.91
2018-04-24T10:59:21.693Z,68.01
2018-04-24T11:00:23.077Z,68.68
2018-04-24T11:01:24.457Z,68.58
2018-04-24T11:02:25.849Z,68.58
2018-04-24T11:03:27.242Z,68.55
2018-04-24T11:04:28.633Z,69.21
2018-04-24T11:05:30.028Z,69.31
2018-04-24T11:06:31.414Z,69.41
2018-04-24T11:07:32.796Z,69.41
2018-04-24T11:08:34.193Z,69.41
2018-04-24T11:09:35.594Z,69.70
2018-04-24T11:10:36.996Z,69.41
2018-04-24T11:11:38.579Z,70.46
2018-04-24T11:12:39.972Z,69.89
2018-04-24T11:13:41.363Z,69.89
2018-04-24T11:14:42.742Z,70.65
2018-04-24T11:15:44.136Z,70.56
2018-04-24T11:16:45.527Z,70.36
2018-04-24T11:17:46.923Z,70.46
2018-04-24T11:18:48.317Z,70.78
2018-04-24T11:19:49.697Z,70.75
2018-04-24T11:20:51.101Z,70.56
2018-04-24T11:21:52.495Z,70.94
2018-04-24T11:22:53.887Z,71.13
2018-04-24T11:23:55.282Z,70.75
2018-04-24T11:24:56.676Z,70.94
2018-04-24T11:25:58.066Z,70.75
2018-04-24T11:26:59.454Z,70.56
2018-04-24T11:28:00.844Z,70.84
2018-04-24T11:29:02.243Z,70.84
2018-04-24T11:30:03.632Z,71.22
2018-04-24T11:31:05.983Z,71.03
2018-04-24T11:32:07.370Z,70.75
2018-04-24T11:33:08.757Z,70.84
2018-04-24T11:34:10.233Z,71.03
2018-04-24T11:35:11.544Z,70.84
2018-04-24T11:36:12.935Z,71.22
2018-04-24T11:37:14.321Z,70.94
2018-04-24T11:38:15.713Z,70.65
2018-04-24T11:39:17.111Z,71.22
2018-04-24T11:40:18.507Z,71.70
2018-04-24T11:41:19.943Z,71.42
2018-04-24T11:42:21.291Z,71.22
2018-04-24T11:43:22.693Z,70.94
2018-04-24T11:44:24.082Z,71.61
2018-04-24T11:45:25.477Z,71.03
2018-04-24T11:46:26.864Z,71.22
2018-04-24T11:47:28.249Z,71.22
2018-04-24T11:48:29.642Z,71.61
2018-04-24T11:49:31.037Z,71.61
2018-04-24T11:50:32.421Z,71.99
2018-04-24T11:51:33.816Z,71.89
2018-04-24T11:52:35.211Z,71.51
2018-04-24T11:53:36.608Z,71.61
2018-04-24T11:54:38.002Z,71.61
2018-04-24T11:55:39.404Z,71.61
2018-04-24T11:56:40.802Z,71.61
2018-04-24T11:57:42.190Z,72.08
2018-04-24T11:58:43.594Z,71.70
2018-04-24T11:59:44.968Z,71.61
2018-04-24T12:00:46.378Z,71.89
2018-04-24T12:01:47.723Z,71.61
2018-04-24T12:02:49.132Z,71.51
2018-04-24T12:03:50.514Z,71.51
2018-04-24T12:04:51.906Z,71.32
2018-04-24T12:05:53.296Z,70.84
2018-04-24T12:06:54.683Z,71.16
2018-04-24T12:07:56.079Z,71.07
2018-04-24T12:08:57.472Z,70.87
2018-04-24T12:09:58.897Z,70.50
2018-04-24T12:11:00.258Z,70.11
2018-04-24T12:12:01.670Z,70.01
2018-04-24T12:13:03.040Z,69.44
2018-04-24T12:14:04.444Z,70.21
2018-04-24T12:15:05.832Z,70.01
2018-04-24T12:16:07.227Z,69.64
2018-04-24T12:17:08.601Z,69.92
2018-04-24T12:18:09.995Z,69.64
2018-04-24T12:19:11.406Z,69.44
2018-04-24T12:20:12.791Z,69.25
2018-04-24T12:21:14.185Z,69.15
2018-04-24T12:22:15.574Z,69.92
2018-04-24T12:23:16.966Z,69.64
2018-04-24T12:24:18.362Z,70.11
2018-04-24T12:25:19.747Z,70.30
2018-04-24T12:26:21.140Z,70.01
2018-04-24T12:27:22.532Z,70.11
2018-04-24T12:28:23.929Z,70.59
2018-04-24T12:29:25.343Z,70.59
2018-04-24T12:30:27.525Z,70.68
2018-04-24T12:31:28.843Z,70.68
2018-04-24T12:32:30.240Z,70.97
2018-04-24T12:33:31.629Z,70.97
2018-04-24T12:34:33.011Z,71.36
2018-04-24T12:35:34.401Z,71.64
2018-04-24T12:36:35.812Z,71.16
2018-04-24T12:37:37.214Z,71.64
2018-04-24T12:38:38.611Z,71.51
2018-04-24T12:39:40.025Z,71.73
2018-04-24T12:40:41.422Z,72.31
2018-04-24T12:41:42.804Z,71.99
2018-04-24T12:42:44.199Z,72.08
2018-04-24T12:43:45.587Z,72.28
2018-04-24T12:44:46.979Z,72.56
2018-04-24T12:45:48.388Z,72.66
2018-04-24T12:46:49.777Z,72.56
2018-04-24T12:47:51.186Z,73.04
2018-04-24T12:48:52.605Z,73.61
2018-04-24T12:49:53.995Z,73.52
2018-04-24T12:50:55.387Z,72.94
2018-04-24T12:51:56.779Z,72.56
2018-04-24T12:52:58.162Z,72.56
2018-04-24T12:53:59.566Z,72.88
2018-04-24T12:55:00.953Z,72.41
2018-04-24T12:56:02.341Z,71.83
2018-04-24T12:57:03.745Z,71.36
2018-04-24T12:58:05.132Z,71.07
2018-04-24T12:59:06.609Z,70.87
2018-04-24T13:00:07.924Z,70.62
2018-04-24T13:01:09.306Z,70.91
2018-04-24T13:02:10.700Z,70.81
2018-04-24T13:03:12.093Z,70.34
2018-04-24T13:04:13.498Z,70.81
2018-04-24T13:05:14.883Z,70.91
2018-04-24T13:06:16.283Z,70.34
2018-04-24T13:07:17.684Z,70.91
2018-04-24T13:08:19.069Z,70.62
2018-04-24T13:09:20.457Z,69.86
2018-04-24T13:10:21.854Z,70.15